This is the latest recevied weather packets stored in our database for station/object WS2Z. If no packets are shown the sender has not sent any weather packets the latest 10 day(s).
| Time | Temp. | Humidity | Pressure | Rain* | Wind** | Luminosity | Snow |
|---|---|---|---|---|---|---|---|
| 1777911131 | 26.67° C | 69% | 1015.9 hPa | 0 mm | - | 283 W/m² | - |
| 1777910828 | 26.67° C | 69% | 1016 hPa | 0 mm | - | 405 W/m² | - |
| 1777910525 | 26.67° C | 71% | 1016.1 hPa | 0 mm | - | 781 W/m² | - |
| 1777910221 | 26.67° C | 70% | 1016.2 hPa | 0 mm | - | 193 W/m² | - |
| 1777909918 | 27.22° C | 69% | 1016.2 hPa | 0 mm | - | 236 W/m² | - |
| 1777909615 | 26.67° C | 69% | 1016.4 hPa | 0 mm | - | 307 W/m² | - |
| 1777909313 | 26.67° C | 71% | 1016.2 hPa | 0 mm | - | 196 W/m² | - |
| 1777909010 | 26.11° C | 72% | 1016.2 hPa | 0 mm | - | 188 W/m² | - |
| 1777908708 | 26.11° C | 72% | 1016.4 hPa | 0 mm | - | 244 W/m² | - |
| 1777908405 | 25.56° C | 73% | 1016.3 hPa | 0 mm | - | 172 W/m² | - |
| 1777908101 | 25.56° C | 73% | 1016.3 hPa | 0 mm | - | 209 W/m² | - |
| 1777907797 | 26.11° C | 71% | 1016.3 hPa | 0 mm | - | 165 W/m² | - |
| 1777907493 | 26.11° C | 72% | 1016.3 hPa | 0 mm | - | 192 W/m² | - |
| 1777907190 | 26.67° C | 70% | 1016.6 hPa | 0 mm | - | 207 W/m² | - |
| 1777906887 | 26.11° C | 72% | 1016.5 hPa | 0 mm | - | 240 W/m² | - |
| 1777906584 | 25.56° C | 73% | 1016.5 hPa | 0 mm | - | 215 W/m² | - |
| 1777906279 | 25.56° C | 73% | 1016.3 hPa | 0 mm | - | 236 W/m² | - |
| 1777905976 | 25.56° C | 73% | 1016.4 hPa | 0 mm | - | 221 W/m² | - |
| 1777905673 | 25° C | 76% | 1016.6 hPa | 0 mm | - | 221 W/m² | - |
| 1777905370 | 24.44° C | 75% | 1016.4 hPa | 0 mm | - | 172 W/m² | - |
| 1777905068 | 24.44° C | 75% | 1016.3 hPa | 0 mm | - | 516 W/m² | - |
| 1777904765 | 24.44° C | 75% | 1016.1 hPa | 0 mm | - | 534 W/m² | - |
| 1777904462 | 24.44° C | 77% | 1016.1 hPa | 0 mm | - | 366 W/m² | - |
| 1777904158 | 24.44° C | 76% | 1016.1 hPa | 0 mm | - | 534 W/m² | - |
| 1777903855 | 23.89° C | 79% | 1016.1 hPa | 0 mm | - | 501 W/m² | - |
* Rain latest hour (hover to see other rain measurements)
** Current wind speed in m/s (hover to see current wind gust speed)